Time;durP1;ratioP1;P1;durP2;ratioP2;P2;SDS_P1;SDS_P2;PMS_P1;PMS_P2;Temp;Humidity;BMP_temperature;BMP_pressure;BME280_temperature;BME280_humidity;BME280_pressure;Samples;Min_cycle;Max_cycle;Signal;HPM_P1;HPM_P2
2022/08/05 00:02:05;;;;;;;2.47;1.77;;;;;;;27.77;42.49;100754.42;1752679;81;21503;-83
2022/08/05 00:04:31;;;;;;;2.65;1.70;;;;;;;27.77;42.52;100750.22;1752602;81;21048;-84
2022/08/05 00:06:58;;;;;;;2.25;1.60;;;;;;;27.77;42.54;100755.81;1752306;81;21064;-84
2022/08/05 00:09:24;;;;;;;2.58;2.08;;;;;;;27.79;42.54;100752.66;1752725;80;21028;-84
2022/08/05 00:11:51;;;;;;;1.75;1.57;;;;;;;27.77;42.54;100748.02;1752641;81;21080;-83
2022/08/05 00:14:17;;;;;;;2.00;1.75;;;;;;;27.77;42.58;100754.42;1752400;80;21488;-84
2022/08/05 00:16:44;;;;;;;1.82;1.67;;;;;;;27.78;42.56;100748.24;1746856;80;21060;-84
2022/08/05 00:19:11;;;;;;;2.47;1.95;;;;;;;27.77;42.59;100743.82;1744145;82;21495;-84
2022/08/05 00:21:37;;;;;;;2.42;1.85;;;;;;;27.77;42.57;100745.22;1741616;81;21123;-84
2022/08/05 00:24:05;;;;;;;2.00;1.75;;;;;;;27.77;42.60;100743.23;1744124;80;21085;-84
2022/08/05 00:26:31;;;;;;;2.98;1.80;;;;;;;27.78;42.60;100741.25;1716417;82;21164;-83
2022/08/05 00:28:57;;;;;;;2.60;1.75;;;;;;;27.77;42.59;100738.23;1744088;80;21021;-84
2022/08/05 00:31:24;;;;;;;1.85;1.50;;;;;;;27.77;42.61;100741.84;1744315;82;20969;-83
2022/08/05 00:33:57;;;;;;;2.40;1.90;;;;;;;27.77;42.63;100746.61;1743397;82;22192;-84
2022/08/05 00:36:23;;;;;;;2.70;1.70;;;;;;;27.77;42.65;100741.02;1743981;81;21124;-84
2022/08/05 00:38:50;;;;;;;2.47;1.90;;;;;;;27.77;42.61;100738.23;1743858;82;21094;-84
2022/08/05 00:41:29;;;;;;;2.15;1.72;;;;;;;27.76;42.67;100740.21;1744251;82;21554;-83
2022/08/05 00:43:55;;;;;;;2.42;1.90;;;;;;;27.75;42.66;100734.42;1743679;80;21032;-83
2022/08/05 00:46:22;;;;;;;2.85;1.77;;;;;;;27.76;42.67;100730.42;1744374;81;21056;-83
2022/08/05 00:48:48;;;;;;;4.28;1.90;;;;;;;27.76;42.68;100737.41;1744139;81;21571;-84
2022/08/05 00:51:15;;;;;;;2.08;1.82;;;;;;;27.76;42.71;100741.61;1743828;80;21176;-83
2022/08/05 00:53:41;;;;;;;2.27;1.67;;;;;;;27.76;42.71;100733.22;1744472;80;20969;-84
2022/08/05 00:56:08;;;;;;;2.52;1.95;;;;;;;27.76;42.71;100734.62;1743877;80;21044;-84
2022/08/05 00:58:35;;;;;;;1.92;1.70;;;;;;;27.76;42.72;100724.02;1743788;80;21073;-83
2022/08/05 01:01:01;;;;;;;2.40;1.92;;;;;;;27.75;42.70;100728.83;1747511;80;21021;-83
2022/08/05 01:03:29;;;;;;;2.52;1.80;;;;;;;27.75;42.72;100726.03;1774690;79;21513;-83
2022/08/05 01:05:55;;;;;;;2.27;2.00;;;;;;;27.76;42.72;100729.03;1774365;80;21064;-83
2022/08/05 01:08:22;;;;;;;2.52;1.87;;;;;;;27.76;42.74;100724.02;1775009;80;21519;-84
2022/08/05 01:10:58;;;;;;;2.10;1.82;;;;;;;27.75;42.75;100720.45;1774670;80;21055;-84
2022/08/05 01:13:46;;;;;;;2.67;2.05;;;;;;;27.76;42.75;100724.84;1774642;80;21017;-84
2022/08/05 01:16:17;;;;;;;2.05;1.62;;;;;;;27.75;42.76;100728.83;1783382;79;21264;-84
2022/08/05 01:18:46;;;;;;;2.08;1.60;;;;;;;27.76;42.73;100722.63;1751162;79;21002;-83
2022/08/05 01:21:26;;;;;;;2.20;2.00;;;;;;;27.73;42.75;100722.78;1800120;79;20995;-83
2022/08/05 01:24:13;;;;;;;;;;;;;;;27.74;42.78;100727.20;1794508;79;20985;-84
2022/08/05 01:27:02;;;;;;;2.55;1.80;;;;;;;27.73;42.79;100728.37;1799974;78;20178;-83
2022/08/05 01:29:35;;;;;;;2.55;2.20;;;;;;;27.72;42.77;100729.55;1799669;78;21154;-84
2022/08/05 01:32:10;;;;;;;3.45;1.92;;;;;;;27.73;42.78;100726.16;1800006;79;20966;-83
2022/08/05 01:34:58;;;;;;;2.77;1.98;;;;;;;27.72;42.80;100722.55;1799615;79;21006;-84
2022/08/05 01:37:44;;;;;;;2.20;1.70;;;;;;;27.71;42.81;100723.14;1799940;78;21030;-83
2022/08/05 01:40:11;;;;;;;2.10;1.90;;;;;;;27.70;42.82;100722.94;1772539;79;20946;-84
2022/08/05 01:42:38;;;;;;;3.30;2.00;;;;;;;27.70;42.84;100731.33;1768400;79;21089;-83
2022/08/05 01:45:06;;;;;;;2.45;2.02;;;;;;;27.71;42.85;100726.52;1768522;80;21013;-83
2022/08/05 01:47:40;;;;;;;4.37;2.47;;;;;;;27.71;42.87;100720.93;1768195;79;21550;-84
2022/08/05 01:50:28;;;;;;;1.87;1.57;;;;;;;27.70;42.89;100723.53;1768453;79;21033;-83
2022/08/05 01:52:59;;;;;;;2.40;1.90;;;;;;;27.70;42.89;100717.36;1721182;83;21483;-84
2022/08/05 01:55:25;;;;;;;;;;;;;;;27.71;42.90;100711.15;1758499;81;21543;-84
2022/08/05 01:57:52;;;;;;;2.12;1.92;;;;;;;27.70;42.92;100713.75;1768552;79;20125;-83
2022/08/05 02:00:18;;;;;;;3.40;1.80;;;;;;;27.70;42.91;100713.75;1768161;79;21009;-84
2022/08/05 02:02:55;;;;;;;2.55;2.00;;;;;;;27.69;42.90;100713.52;1738594;81;21045;-84
2022/08/05 02:05:24;;;;;;;2.40;1.98;;;;;;;27.69;42.95;100714.33;1767206;79;21431;-84
2022/08/05 02:07:50;;;;;;;2.87;2.15;;;;;;;27.69;42.95;100717.12;1768440;79;21145;-84
2022/08/05 02:10:17;;;;;;;2.30;1.90;;;;;;;27.69;42.95;100712.94;1768499;81;21052;-84
2022/08/05 02:12:53;;;;;;;3.50;1.75;;;;;;;27.69;42.95;100711.53;1768294;81;21077;-84
2022/08/05 02:15:30;;;;;;;2.05;1.85;;;;;;;27.70;42.97;100714.56;1768355;79;21528;-83
2022/08/05 02:18:08;;;;;;;2.70;1.95;;;;;;;27.71;42.97;100706.95;1741640;82;21337;-84
2022/08/05 02:20:49;;;;;;;2.75;2.10;;;;;;;27.70;42.95;100713.16;1713197;82;21713;-84
2022/08/05 02:23:15;;;;;;;2.95;1.92;;;;;;;27.71;42.96;100706.95;1743303;80;21562;-83
2022/08/05 02:25:43;;;;;;;1.92;1.72;;;;;;;27.71;42.97;100708.35;1744589;80;21067;-83
2022/08/05 02:28:09;;;;;;;2.40;1.92;;;;;;;27.70;42.96;100714.56;1744501;80;21067;-84
2022/08/05 02:30:46;;;;;;;2.52;1.90;;;;;;;27.71;42.99;100711.15;1744297;80;21067;-84
2022/08/05 02:33:14;;;;;;;2.05;1.80;;;;;;;27.70;43.01;100716.55;1744371;80;21009;-84
2022/08/05 02:35:41;;;;;;;2.98;2.12;;;;;;;27.71;42.99;100712.55;1687897;82;21032;-84
2022/08/05 02:38:07;;;;;;;2.17;1.82;;;;;;;27.71;43.00;100713.36;1744537;80;21506;-83
2022/08/05 02:40:34;;;;;;;2.12;1.77;;;;;;;27.70;43.01;100711.77;1744315;80;21067;-84
2022/08/05 02:43:00;;;;;;;2.22;1.80;;;;;;;27.71;43.02;100714.75;1744243;80;21004;-84
2022/08/05 02:45:27;;;;;;;3.20;2.27;;;;;;;27.71;43.03;100711.15;1744500;82;21119;-83
2022/08/05 02:47:54;;;;;;;1.85;1.72;;;;;;;27.71;43.02;100721.74;1744343;80;20957;-84
2022/08/05 02:50:21;;;;;;;2.12;1.77;;;;;;;27.71;43.05;100717.55;1744185;80;21579;-84
2022/08/05 02:52:48;;;;;;;2.15;1.95;;;;;;;27.73;43.06;100721.97;1750529;80;21035;-84
2022/08/05 02:55:14;;;;;;;2.17;1.90;;;;;;;27.71;43.06;100719.53;1754956;81;21110;-84
2022/08/05 02:57:40;;;;;;;2.72;2.10;;;;;;;27.72;43.08;100718.36;1733500;81;22072;-84
2022/08/05 03:00:08;;;;;;;2.87;2.33;;;;;;;27.71;43.06;100720.34;1754857;80;21110;-84
2022/08/05 03:02:38;;;;;;;3.67;1.95;;;;;;;27.72;43.08;100715.57;1733569;81;21061;-84
2022/08/05 03:05:07;;;;;;;2.12;1.75;;;;;;;27.72;43.09;100721.16;1754714;81;21018;-83
2022/08/05 03:07:34;;;;;;;2.30;1.90;;;;;;;27.72;43.09;100725.35;1733896;80;21028;-83
2022/08/05 03:10:00;;;;;;;2.98;2.10;;;;;;;27.71;43.08;100726.52;1755039;81;21107;-83
2022/08/05 03:12:31;;;;;;;3.90;2.12;;;;;;;27.73;43.11;100731.76;1733343;81;21122;-83
2022/08/05 03:14:58;;;;;;;3.70;1.98;;;;;;;27.71;43.10;100729.31;1755000;81;21409;-84
2022/08/05 03:17:25;;;;;;;2.55;2.00;;;;;;;27.72;43.14;100736.53;1765752;80;21072;-83
2022/08/05 03:19:51;;;;;;;3.15;2.00;;;;;;;27.72;43.13;100729.55;1773413;80;21039;-84
2022/08/05 03:22:18;;;;;;;2.37;1.85;;;;;;;27.72;43.14;100730.94;1773685;80;21040;-83
2022/08/05 03:24:44;;;;;;;2.55;2.05;;;;;;;27.71;43.15;100732.11;1773694;80;21501;-84
2022/08/05 03:27:11;;;;;;;2.30;1.90;;;;;;;27.72;43.14;100733.73;1775581;80;21019;-84
2022/08/05 03:29:39;;;;;;;2.58;2.10;;;;;;;27.73;43.15;100730.36;1783982;80;21034;-83
2022/08/05 03:32:09;;;;;;;3.05;2.12;;;;;;;27.72;43.18;100730.94;1784515;80;21014;-84
2022/08/05 03:34:36;;;;;;;2.22;2.00;;;;;;;27.72;43.15;100730.94;1784250;80;21169;-84
2022/08/05 03:37:03;;;;;;;4.05;2.20;;;;;;;27.72;43.16;100729.55;1784354;80;21026;-84
2022/08/05 03:39:30;;;;;;;3.65;2.10;;;;;;;27.73;43.16;100731.76;1784394;80;20979;-84
2022/08/05 03:41:56;;;;;;;2.22;1.98;;;;;;;27.72;43.18;100728.15;1783943;80;21371;-83
2022/08/05 03:44:23;;;;;;;2.25;1.80;;;;;;;27.72;43.20;100726.75;1784307;80;21011;-83
2022/08/05 03:46:50;;;;;;;3.17;2.08;;;;;;;27.72;43.20;100730.94;1784215;80;21117;-83
2022/08/05 03:49:17;;;;;;;2.75;2.30;;;;;;;27.72;43.19;100736.53;1784093;80;20970;-83
2022/08/05 03:51:59;;;;;;;2.95;2.10;;;;;;;27.72;43.21;100733.73;1784443;80;20988;-83
2022/08/05 03:54:37;;;;;;;2.33;2.00;;;;;;;27.72;43.21;100736.53;1784175;79;21023;-84
2022/08/05 03:57:03;;;;;;;2.27;1.90;;;;;;;27.71;43.20;100743.30;1784253;80;21615;-84
2022/08/05 03:59:38;;;;;;;2.22;1.98;;;;;;;27.72;43.20;100747.72;1784079;80;21058;-84
2022/08/05 04:02:05;;;;;;;2.85;2.20;;;;;;;27.73;43.21;100738.74;1784461;79;21578;-84
2022/08/05 04:04:31;;;;;;;2.17;1.95;;;;;;;27.71;43.22;100741.89;1784265;80;21058;-84
2022/08/05 04:06:58;;;;;;;2.92;2.20;;;;;;;27.71;43.25;100748.30;1783998;80;21059;-84
2022/08/05 04:09:25;;;;;;;3.22;2.27;;;;;;;27.72;43.24;100747.72;1784256;80;21073;-84
2022/08/05 04:11:51;;;;;;;2.90;2.17;;;;;;;27.70;43.22;100748.11;1764487;80;21508;-83
2022/08/05 04:14:18;;;;;;;3.52;2.17;;;;;;;27.72;43.25;100743.52;1784109;80;21536;-83
2022/08/05 04:16:44;;;;;;;3.10;2.25;;;;;;;27.71;43.25;100742.71;1783710;80;21039;-83
2022/08/05 04:19:12;;;;;;;2.80;2.15;;;;;;;27.71;43.24;100737.70;1778896;80;21498;-84
2022/08/05 04:21:39;;;;;;;4.12;2.25;;;;;;;27.72;43.24;100740.73;1779106;80;21074;-83
2022/08/05 04:24:05;;;;;;;3.02;2.08;;;;;;;27.72;43.22;100735.13;1779307;80;21163;-83
2022/08/05 04:26:32;;;;;;;3.75;2.17;;;;;;;27.73;43.24;100733.16;1779459;80;21472;-83
2022/08/05 04:28:59;;;;;;;2.95;2.20;;;;;;;27.73;43.25;100736.77;1779051;80;20999;-83
2022/08/05 04:31:26;;;;;;;2.65;2.05;;;;;;;27.72;43.24;100723.95;1779365;80;20900;-84
2022/08/05 04:33:52;;;;;;;2.75;2.10;;;;;;;27.73;43.24;100726.16;1779446;80;20959;-84
2022/08/05 04:36:19;;;;;;;2.87;2.35;;;;;;;27.72;43.25;100726.75;1779014;80;21671;-83
2022/08/05 04:38:45;;;;;;;2.55;2.27;;;;;;;27.73;43.26;100720.58;1779169;80;21019;-84
2022/08/05 04:41:14;;;;;;;2.75;1.80;;;;;;;27.73;43.25;100725.58;1779453;80;20995;-83
2022/08/05 04:43:40;;;;;;;2.47;2.10;;;;;;;27.73;43.25;100723.38;1779092;79;21023;-83
2022/08/05 04:46:06;;;;;;;4.12;2.60;;;;;;;27.74;43.23;100723.02;1779425;80;20979;-83
2022/08/05 04:48:33;;;;;;;3.65;2.10;;;;;;;27.74;43.26;100723.59;1779452;79;21553;-83
2022/08/05 04:51:00;;;;;;;3.80;2.20;;;;;;;27.74;43.27;100722.20;1778919;80;21002;-83
2022/08/05 04:53:26;;;;;;;2.80;2.05;;;;;;;27.73;43.25;100718.59;1779072;79;21110;-83
2022/08/05 04:55:53;;;;;;;2.70;2.25;;;;;;;27.74;43.25;100716.61;1779386;80;21014;-84
2022/08/05 04:58:19;;;;;;;2.40;1.95;;;;;;;27.74;43.24;100721.61;1779170;80;21022;-83
2022/08/05 05:00:46;;;;;;;3.37;2.20;;;;;;;27.75;43.30;100722.42;1779359;80;21358;-83
2022/08/05 05:03:12;;;;;;;2.27;2.08;;;;;;;27.74;43.33;100724.41;1779266;80;21447;-84
2022/08/05 05:05:45;;;;;;;2.90;2.08;;;;;;;27.72;43.35;100716.97;1778970;80;21058;-83
2022/08/05 05:08:13;;;;;;;2.35;2.02;;;;;;;27.71;43.37;100719.53;1779386;80;21032;-84
2022/08/05 05:10:42;;;;;;;3.22;2.55;;;;;;;27.70;43.40;100718.75;1779355;79;21066;-84
2022/08/05 05:13:10;;;;;;;4.20;2.75;;;;;;;27.71;43.42;100720.93;1779119;80;20995;-84
2022/08/05 05:15:36;;;;;;;3.67;2.50;;;;;;;27.69;43.45;100716.31;1775333;80;21426;-84
2022/08/05 05:18:03;;;;;;;4.05;2.85;;;;;;;27.68;43.47;100716.09;1753006;81;21087;-83
2022/08/05 05:20:30;;;;;;;4.12;2.90;;;;;;;27.67;43.50;100715.27;1744122;81;21539;-84
2022/08/05 05:23:03;;;;;;;4.17;3.00;;;;;;;27.67;43.53;100717.25;1744537;81;21084;-84
2022/08/05 05:25:29;;;;;;;3.62;3.02;;;;;;;27.68;43.56;100716.09;1744592;82;21120;-83
2022/08/05 05:27:56;;;;;;;4.22;3.08;;;;;;;27.66;43.59;100709.48;1744085;82;21040;-84
2022/08/05 05:30:24;;;;;;;5.00;2.60;;;;;;;27.65;43.62;100712.05;1744510;80;21439;-83
2022/08/05 05:32:51;;;;;;;6.95;3.42;;;;;;;27.64;43.61;100712.41;1744584;81;21668;-83
2022/08/05 05:35:17;;;;;;;3.45;2.92;;;;;;;27.66;43.63;100714.27;1744504;81;21023;-82
2022/08/05 05:37:56;;;;;;;4.05;2.70;;;;;;;27.64;43.66;100714.62;1744388;82;21155;-84
2022/08/05 05:40:25;;;;;;;4.80;2.98;;;;;;;27.63;43.69;100714.98;1744314;80;20997;-83
2022/08/05 05:42:52;;;;;;;3.95;2.90;;;;;;;27.64;43.69;100714.62;1744879;82;21059;-83
2022/08/05 05:45:22;;;;;;;5.03;3.35;;;;;;;27.63;43.70;100707.98;1756862;80;20964;-83
2022/08/05 05:47:52;;;;;;;3.27;2.90;;;;;;;27.65;43.72;100712.05;1774394;80;21104;-84
2022/08/05 05:50:24;;;;;;;9.43;3.58;;;;;;;27.64;43.74;100712.41;1772470;80;21120;-84
2022/08/05 05:52:51;;;;;;;4.53;3.17;;;;;;;27.63;43.75;100710.78;1757658;80;21642;-83
2022/08/05 05:55:22;;;;;;;5.30;3.05;;;;;;;27.62;43.78;100710.59;1744267;82;21131;-85
2022/08/05 05:57:48;;;;;;;14.85;4.37;;;;;;;27.63;43.80;100712.19;1743791;82;21115;-84
2022/08/05 06:00:25;;;;;;;7.05;3.00;;;;;;;27.62;43.81;100720.38;1744008;82;21131;-85
2022/08/05 06:02:50;;;;;;;4.53;3.15;;;;;;;27.62;43.80;100721.77;1762194;79;21320;-84
2022/08/05 06:05:17;;;;;;;10.53;4.03;;;;;;;27.62;43.81;100719.78;1762246;79;21056;-84
2022/08/05 06:07:44;;;;;;;4.78;3.10;;;;;;;27.63;43.82;100721.97;1764635;79;21080;-84
2022/08/05 06:10:11;;;;;;;6.90;3.25;;;;;;;27.63;43.83;100719.98;1774895;79;21103;-83
2022/08/05 06:12:38;;;;;;;7.78;3.80;;;;;;;27.64;43.81;100716.60;1750477;80;20996;-83
2022/08/05 06:15:05;;;;;;;7.42;3.15;;;;;;;27.64;43.80;100719.39;1766560;79;21021;-83
2022/08/05 06:17:32;;;;;;;6.20;3.40;;;;;;;27.62;43.78;100722.58;1677613;83;21057;-83
2022/08/05 06:19:59;;;;;;;8.08;3.58;;;;;;;27.62;43.77;100723.16;1694282;84;20959;-83
2022/08/05 06:22:30;;;;;;;7.72;2.95;;;;;;;27.61;43.81;100722.35;1745226;80;21049;-83
2022/08/05 06:24:57;;;;;;;5.70;3.25;;;;;;;27.62;43.78;100725.37;1746641;80;21813;-83
2022/08/05 06:27:24;;;;;;;4.40;3.40;;;;;;;27.63;43.77;100728.95;1749756;80;21598;-83
2022/08/05 06:29:50;;;;;;;9.15;3.83;;;;;;;27.63;43.76;100731.16;1773707;80;21103;-84
2022/08/05 06:32:17;;;;;;;7.20;3.25;;;;;;;27.65;43.74;100728.02;1741735;82;21013;-83
2022/08/05 06:34:45;;;;;;;6.53;3.52;;;;;;;27.64;43.75;100730.58;1753810;81;21090;-84
2022/08/05 06:37:12;;;;;;;6.28;3.33;;;;;;;27.63;43.80;100727.55;1757011;81;21061;-84
2022/08/05 06:39:38;;;;;;;4.50;3.20;;;;;;;27.62;43.81;100730.97;1754126;81;21048;-84
2022/08/05 06:42:05;;;;;;;6.00;3.02;;;;;;;27.63;43.79;100728.37;1754065;81;21467;-84
2022/08/05 06:44:32;;;;;;;4.80;3.10;;;;;;;27.64;43.76;100725.80;1743312;81;21475;-83
2022/08/05 06:46:58;;;;;;;8.85;3.02;;;;;;;27.65;43.78;100732.20;1772445;81;21068;-84
2022/08/05 06:49:25;;;;;;;7.33;3.47;;;;;;;27.66;43.76;100731.84;1772177;81;21494;-83
2022/08/05 06:51:52;;;;;;;5.22;3.17;;;;;;;27.66;43.75;100729.64;1772601;81;21444;-83
2022/08/05 06:54:18;;;;;;;4.50;2.87;;;;;;;27.67;43.73;100733.44;1772149;81;21001;-83
2022/08/05 06:56:45;;;;;;;6.22;3.35;;;;;;;27.68;43.74;100725.88;1771921;81;21060;-84
2022/08/05 06:59:13;;;;;;;9.00;3.55;;;;;;;27.69;43.76;100728.89;1772226;81;20965;-83
2022/08/05 07:01:39;;;;;;;5.03;3.17;;;;;;;27.68;43.75;100726.68;1772412;81;21060;-84
2022/08/05 07:04:06;;;;;;;8.58;3.62;;;;;;;27.68;43.74;100721.09;1750255;81;21076;-84
2022/08/05 07:06:32;;;;;;;6.50;3.27;;;;;;;27.69;43.76;100722.72;1755786;79;21044;-84
2022/08/05 07:09:00;;;;;;;4.80;3.45;;;;;;;27.70;43.77;100717.36;1720901;82;21511;-84
2022/08/05 07:11:29;;;;;;;3.83;3.33;;;;;;;27.70;43.76;100721.55;1723786;83;21567;-83
2022/08/05 07:16:48;;;;;;;4.92;3.08;;;;;;;27.71;43.76;100713.94;1799684;79;21277;-83
2022/08/05 07:19:18;;;;;;;4.95;3.22;;;;;;;27.69;43.73;100715.73;1735575;80;21280;-84
2022/08/05 07:21:46;;;;;;;4.75;3.20;;;;;;;27.70;43.70;100710.95;1740478;81;21051;-84
2022/08/05 07:24:17;;;;;;;4.60;3.03;;;;;;;27.71;43.69;100715.34;1765939;79;20957;-84
2022/08/05 07:26:44;;;;;;;8.33;3.30;;;;;;;27.71;43.73;100712.55;1784570;79;21493;-84
2022/08/05 07:29:16;;;;;;;7.47;3.17;;;;;;;27.72;43.75;100718.36;1743314;80;22208;-86
2022/08/05 07:31:43;;;;;;;5.10;3.20;;;;;;;27.71;43.76;100716.16;1743389;82;21075;-85
2022/08/05 07:34:09;;;;;;;6.92;3.20;;;;;;;27.71;43.78;100716.16;1741240;80;21111;-84
2022/08/05 07:36:36;;;;;;;6.22;2.92;;;;;;;27.72;43.78;100712.77;1774223;80;21044;-84
2022/08/05 07:39:05;;;;;;;4.45;3.17;;;;;;;27.72;43.71;100714.17;1753388;80;21123;-85
2022/08/05 07:41:32;;;;;;;4.25;3.35;;;;;;;27.70;43.64;100707.57;1744458;80;21508;-85
2022/08/05 07:43:58;;;;;;;3.70;3.08;;;;;;;27.70;43.61;100706.76;1743699;82;21515;-85
2022/08/05 07:46:26;;;;;;;7.92;3.20;;;;;;;27.69;43.48;100710.14;1743420;80;21083;-85
2022/08/05 07:48:55;;;;;;;5.30;3.60;;;;;;;27.70;43.51;100711.77;1745370;80;21044;-85
2022/08/05 07:51:22;;;;;;;5.87;3.20;;;;;;;27.73;43.38;100712.19;1772049;79;21068;-84
2022/08/05 07:53:48;;;;;;;4.40;2.70;;;;;;;27.75;43.27;100710.66;1773981;79;21047;-85
2022/08/05 07:56:15;;;;;;;4.87;2.90;;;;;;;27.78;43.17;100704.91;1759940;79;20955;-85
2022/08/05 07:58:42;;;;;;;4.65;3.05;;;;;;;27.81;43.10;100704.98;1760628;80;21108;-85
2022/08/05 08:01:08;;;;;;;4.10;2.80;;;;;;;27.84;43.05;100701.43;1761272;79;21025;-84
2022/08/05 08:03:35;;;;;;;8.80;3.00;;;;;;;27.85;42.90;100698.05;1758787;79;21125;-84
2022/08/05 08:06:01;;;;;;;3.92;2.80;;;;;;;27.88;42.82;100707.90;1755251;79;21104;-84
2022/08/05 08:08:28;;;;;;;4.25;2.77;;;;;;;27.88;42.86;100703.70;1759358;80;21067;-84
2022/08/05 08:10:55;;;;;;;5.37;3.25;;;;;;;27.89;42.93;100700.33;1755885;80;21107;-85
2022/08/05 08:13:21;;;;;;;4.40;3.12;;;;;;;27.88;42.99;100696.72;1767786;79;21852;-84
2022/08/05 08:15:48;;;;;;;5.17;3.10;;;;;;;27.87;43.04;100703.51;1735311;79;21092;-84
2022/08/05 08:18:15;;;;;;;4.75;3.02;;;;;;;27.87;43.05;100702.70;1755877;79;21107;-85
2022/08/05 08:20:41;;;;;;;6.35;3.27;;;;;;;27.85;43.09;100703.05;1739410;81;21056;-84
2022/08/05 08:23:08;;;;;;;3.00;2.70;;;;;;;27.85;43.12;100700.26;1712977;82;21144;-85
2022/08/05 08:25:34;;;;;;;5.12;2.92;;;;;;;27.84;43.16;100691.64;1764037;80;21063;-84
2022/08/05 08:28:01;;;;;;;7.83;2.90;;;;;;;27.85;43.14;100693.86;1755823;80;21027;-84
2022/08/05 08:30:27;;;;;;;4.42;2.72;;;;;;;27.86;43.01;100699.09;1776533;80;21647;-84
2022/08/05 08:32:54;;;;;;;4.85;2.60;;;;;;;27.88;43.04;100700.12;1781898;78;21086;-83
2022/08/05 08:35:20;;;;;;;3.95;2.80;;;;;;;27.88;43.03;100692.52;1756135;80;21098;-84
2022/08/05 08:37:47;;;;;;;3.87;2.90;;;;;;;27.90;42.97;100690.18;1755695;80;21110;-84
2022/08/05 08:40:13;;;;;;;5.55;2.60;;;;;;;27.91;42.91;100684.00;1755798;80;21530;-84
2022/08/05 08:42:40;;;;;;;2.62;2.42;;;;;;;27.91;42.93;100690.41;1784452;80;22041;-83
2022/08/05 08:45:07;;;;;;;5.70;2.90;;;;;;;27.92;42.97;100689.20;1787088;80;21071;-84
2022/08/05 08:47:34;;;;;;;3.42;3.12;;;;;;;27.93;42.96;100683.02;1789113;78;21023;-84
2022/08/05 08:50:01;;;;;;;3.17;2.60;;;;;;;27.92;42.95;100678.02;1776235;78;21199;-83
2022/08/05 08:52:32;;;;;;;3.90;3.00;;;;;;;27.93;42.99;100680.23;1729524;82;22300;-84
2022/08/05 08:54:59;;;;;;;4.30;2.58;;;;;;;27.93;42.99;100675.45;1747671;81;21266;-84
2022/08/05 08:57:25;;;;;;;4.10;2.70;;;;;;;27.93;43.01;100669.86;1725394;83;21087;-84
2022/08/05 08:59:58;;;;;;;3.45;2.70;;;;;;;27.94;43.00;100666.47;1726814;81;21591;-84
2022/08/05 09:02:24;;;;;;;3.77;2.33;;;;;;;27.94;42.97;100669.27;1784426;78;21023;-84
2022/08/05 09:04:51;;;;;;;5.95;2.60;;;;;;;27.94;42.97;100666.47;1785758;79;21026;-85
2022/08/05 09:07:17;;;;;;;4.20;2.30;;;;;;;27.94;43.02;100658.08;1763532;79;21140;-84
2022/08/05 09:09:50;;;;;;;3.87;2.65;;;;;;;27.94;43.01;100661.69;1783020;79;21440;-85
2022/08/05 09:12:16;;;;;;;3.15;2.55;;;;;;;27.94;43.03;100665.89;1789919;79;21757;-85
2022/08/05 09:14:44;;;;;;;3.17;2.58;;;;;;;27.95;43.04;100659.70;1781722;79;21093;-83
2022/08/05 09:17:14;;;;;;;4.25;2.62;;;;;;;27.95;43.04;100661.92;1778226;80;21065;-84
2022/08/05 09:19:40;;;;;;;;;;;;;;;27.95;43.06;100647.94;1782903;80;21713;-84
2022/08/05 09:22:07;;;;;;;6.20;2.87;;;;;;;27.94;43.07;100649.11;1780696;80;21007;-83
2022/08/05 09:24:37;;;;;;;3.25;2.60;;;;;;;27.95;43.07;100656.91;1778548;80;21017;-83
2022/08/05 09:27:08;;;;;;;2.87;2.58;;;;;;;27.94;43.08;100646.89;1777918;80;21025;-84
2022/08/05 09:29:41;;;;;;;3.10;2.50;;;;;;;27.93;43.10;100648.88;1778165;80;21582;-84
2022/08/05 09:32:08;;;;;;;3.80;2.50;;;;;;;27.94;43.11;100642.70;1794473;79;21092;-84
2022/08/05 09:34:54;;;;;;;3.33;2.58;;;;;;;27.94;43.13;100644.91;1810035;79;21002;-84
2022/08/05 09:37:26;;;;;;;2.62;2.40;;;;;;;27.94;43.13;100642.12;1810071;79;20998;-84
2022/08/05 09:39:58;;;;;;;2.80;2.25;;;;;;;27.94;43.13;100644.10;1797850;78;21649;-84
2022/08/05 09:42:24;;;;;;;3.05;2.70;;;;;;;27.94;43.15;100641.30;1760723;78;21046;-84
2022/08/05 09:44:52;;;;;;;2.80;2.20;;;;;;;27.94;43.15;100645.50;1793242;78;21110;-83
2022/08/05 09:47:23;;;;;;;4.70;2.50;;;;;;;27.94;43.14;100639.32;1788690;80;21079;-82
2022/08/05 09:49:54;;;;;;;4.55;2.50;;;;;;;27.95;43.16;100631.74;1788040;78;21058;-84
2022/08/05 09:52:33;;;;;;;2.83;2.20;;;;;;;27.95;43.16;100630.34;1798534;78;21836;-83
2022/08/05 09:55:07;;;;;;;3.98;2.60;;;;;;;27.95;43.19;100632.55;1734070;82;21045;-84
2022/08/05 09:57:41;;;;;;;2.58;2.37;;;;;;;27.96;43.18;100625.80;1808107;79;21480;-84
2022/08/05 10:00:20;;;;;;;3.33;2.40;;;;;;;27.95;43.17;100625.56;1782773;79;21343;-83
2022/08/05 10:02:48;;;;;;;2.75;2.40;;;;;;;27.95;43.16;100626.97;1804641;78;20998;-83
2022/08/05 10:05:20;;;;;;;3.87;2.20;;;;;;;27.96;43.18;100629.98;1809070;79;21447;-84
2022/08/05 10:07:56;;;;;;;2.62;2.33;;;;;;;27.95;43.19;100626.97;1799090;79;21051;-84
2022/08/05 10:10:32;;;;;;;4.15;2.15;;;;;;;27.95;43.20;100612.98;1778722;80;21044;-83
2022/08/05 10:13:00;;;;;;;2.72;2.35;;;;;;;27.96;43.21;100620.78;1711359;82;21092;-84
2022/08/05 10:15:38;;;;;;;3.33;2.10;;;;;;;27.95;43.22;100616.37;1777539;80;21075;-84
2022/08/05 10:18:15;;;;;;;4.37;2.65;;;;;;;27.95;43.22;100614.97;1777023;79;21020;-84
2022/08/05 10:20:45;;;;;;;2.55;2.35;;;;;;;27.95;43.22;100608.78;1767126;80;21096;-84
2022/08/05 10:23:27;;;;;;;4.92;2.30;;;;;;;27.94;43.22;100609.96;1767095;80;21118;-84
2022/08/05 10:25:55;;;;;;;4.08;2.20;;;;;;;27.94;43.21;100606.35;1781816;79;21011;-83
2022/08/05 10:28:23;;;;;;;3.40;2.47;;;;;;;27.94;43.22;100605.77;1781919;79;21066;-84
2022/08/05 10:30:52;;;;;;;2.55;2.27;;;;;;;27.95;43.20;100604.59;1767863;79;21045;-84
2022/08/05 10:33:20;;;;;;;3.27;2.40;;;;;;;27.96;43.19;100603.42;1788425;79;21064;-83
2022/08/05 10:35:46;;;;;;;2.45;2.15;;;;;;;27.95;43.19;100587.81;1812494;78;21553;-83
2022/08/05 10:38:13;;;;;;;3.25;2.30;;;;;;;27.96;43.20;100592.82;1814725;78;21056;-83
2022/08/05 10:40:59;;;;;;;3.40;2.20;;;;;;;27.96;43.19;100590.84;1814382;79;21064;-83
2022/08/05 10:43:46;;;;;;;4.08;2.50;;;;;;;27.95;43.15;100586.41;1814047;78;21052;-84
2022/08/05 10:46:16;;;;;;;2.55;2.20;;;;;;;27.96;43.10;100588.63;1801307;79;21021;-84
2022/08/05 10:48:45;;;;;;;3.05;2.20;;;;;;;27.96;43.04;100597.83;1798638;79;21727;-83
2022/08/05 10:51:19;;;;;;;3.47;2.47;;;;;;;27.96;43.01;100588.04;1799992;79;21080;-84
2022/08/05 10:53:55;;;;;;;2.95;2.45;;;;;;;27.96;42.94;100581.05;1744004;82;21064;-84
2022/08/05 10:56:24;;;;;;;2.50;2.30;;;;;;;27.95;42.89;100582.22;1814285;79;21036;-84
2022/08/05 10:59:04;;;;;;;3.52;2.45;;;;;;;27.97;42.87;100580.43;1744757;82;21612;-84
2022/08/05 11:01:37;;;;;;;3.45;2.90;;;;;;;27.97;42.80;100570.64;1814568;78;21163;-83
2022/08/05 11:04:10;;;;;;;2.52;2.27;;;;;;;27.96;42.84;100563.46;1744533;81;21590;-84
2022/08/05 11:06:59;;;;;;;4.05;2.42;;;;;;;27.98;42.86;100572.27;1795192;78;21092;-83
2022/08/05 11:09:50;;;;;;;3.12;2.40;;;;;;;27.98;42.84;100573.08;1766969;81;21507;-84
2022/08/05 11:12:40;;;;;;;2.90;2.40;;;;;;;27.97;42.87;100568.66;1767026;81;21024;-83
2022/08/05 11:15:29;;;;;;;3.52;2.08;;;;;;;27.97;42.88;100574.25;1766581;80;21221;-84
2022/08/05 11:17:54;;;;;;;3.50;2.37;;;;;;;27.97;42.84;100565.86;1761548;81;21478;-84
2022/08/05 11:20:43;;;;;;;2.87;2.12;;;;;;;27.97;42.87;100565.05;1764739;80;21068;-84
2022/08/05 11:23:33;;;;;;;4.17;2.25;;;;;;;27.97;42.88;100563.06;1725221;83;21093;-83
2022/08/05 11:26:08;;;;;;;3.22;2.20;;;;;;;27.97;42.89;100556.08;1707657;84;21129;-84
2022/08/05 11:28:37;;;;;;;3.37;2.30;;;;;;;27.97;42.87;100558.06;1707670;82;21993;-83
2022/08/05 11:31:12;;;;;;;3.10;2.10;;;;;;;27.98;42.90;100556.88;1707656;84;22095;-84
2022/08/05 11:33:52;;;;;;;3.67;1.98;;;;;;;27.97;42.92;100551.88;1707577;84;21545;-83
2022/08/05 11:36:22;;;;;;;3.00;2.30;;;;;;;27.97;42.90;100555.27;1707173;82;21043;-84
2022/08/05 11:38:54;;;;;;;2.85;2.40;;;;;;;27.97;42.92;100549.08;1706335;81;21087;-83
2022/08/05 11:41:27;;;;;;;3.77;2.47;;;;;;;27.97;42.89;100551.88;1706890;82;24474;-83